Time;durP1;ratioP1;P1;durP2;ratioP2;P2;SDS_P1;SDS_P2;PMS_P1;PMS_P2;Temp;Humidity;BMP_temperature;BMP_pressure;BME280_temperature;BME280_humidity;BME280_pressure;Samples;Min_cycle;Max_cycle;Signal;HPM_P1;HPM_P2
2022/09/17 00:01:21;;;;;;;3.30;0.85;;;8.80;99.90;;;;;;5095093;28;20040;-70
2022/09/17 00:03:52;;;;;;;0.82;0.43;;;8.80;99.90;;;;;;5099988;28;20100;-66
2022/09/17 00:06:19;;;;;;;1.67;0.68;;;8.90;99.90;;;;;;5099625;28;20713;-67
2022/09/17 00:08:44;;;;;;;1.90;0.40;;;9.00;99.90;;;;;;5101332;28;20051;-66
2022/09/17 00:11:15;;;;;;;;;;;9.00;99.90;;;;;;5093005;28;20040;-67
2022/09/17 00:13:42;;;;;;;1.52;0.50;;;9.00;99.90;;;;;;5100870;28;19959;-66
2022/09/17 00:16:08;;;;;;;3.38;0.43;;;9.00;99.90;;;;;;5096528;28;20092;-67
2022/09/17 00:18:35;;;;;;;;;;;8.90;99.90;;;;;;5090309;28;20438;-69
2022/09/17 00:21:02;;;;;;;1.90;0.40;;;9.00;99.90;;;;;;5078862;28;19952;-67
2022/09/17 00:23:28;;;;;;;1.02;0.30;;;8.90;99.90;;;;;;5087853;28;20048;-66
2022/09/17 00:25:53;;;;;;;;;;;8.90;99.90;;;;;;5078903;28;20626;-67
2022/09/17 00:28:19;;;;;;;1.50;0.60;;;8.90;99.90;;;;;;5087629;28;19989;-70
2022/09/17 00:30:45;;;;;;;;;;;9.00;99.90;;;;;;5085990;28;20039;-67
2022/09/17 00:33:13;;;;;;;1.25;0.35;;;9.00;99.90;;;;;;5082542;28;19919;-67
2022/09/17 00:35:38;;;;;;;3.03;0.40;;;9.00;99.90;;;;;;5086169;28;20044;-67
2022/09/17 00:38:04;;;;;;;;;;;9.00;99.90;;;;;;5086732;28;20059;-68
2022/09/17 00:40:30;;;;;;;0.73;0.30;;;8.90;99.90;;;;;;5079441;28;19919;-67
2022/09/17 00:42:55;;;;;;;;;;;8.80;99.90;;;;;;5086330;28;20048;-67
2022/09/17 00:45:22;;;;;;;1.25;0.40;;;8.90;99.90;;;;;;5085553;28;19916;-67
2022/09/17 00:47:57;;;;;;;1.20;0.47;;;8.80;99.90;;;;;;5088167;28;20032;-67
2022/09/17 00:50:46;;;;;;;1.50;0.52;;;8.80;99.90;;;;;;5084577;28;20044;-67
2022/09/17 00:53:20;;;;;;;0.73;0.43;;;8.90;99.90;;;;;;5079072;28;20392;-67
2022/09/17 00:56:03;;;;;;;0.50;0.35;;;9.00;99.90;;;;;;5083882;28;20063;-66
2022/09/17 00:58:31;;;;;;;2.78;0.40;;;8.90;99.90;;;;;;5087584;28;20032;-68
2022/09/17 01:00:57;;;;;;;1.27;0.30;;;9.00;99.90;;;;;;5083377;28;20043;-68
2022/09/17 01:03:22;;;;;;;;;;;9.00;99.90;;;;;;5082505;28;20044;-68
2022/09/17 01:06:08;;;;;;;2.20;0.60;;;9.00;99.90;;;;;;5084592;28;19977;-67
2022/09/17 01:09:07;;;;;;;6.95;2.10;;;9.00;99.90;;;;;;5086956;28;20093;-66
2022/09/17 01:12:13;;;;;;;5.35;1.35;;;8.90;99.90;;;;;;5080935;28;20052;-67
2022/09/17 01:14:54;;;;;;;6.40;1.25;;;8.90;99.90;;;;;;5082184;28;20059;-70
2022/09/17 01:17:19;;;;;;;7.97;2.20;;;8.90;99.90;;;;;;5084841;28;20036;-68
2022/09/17 01:19:48;;;;;;;;;;;8.90;99.90;;;;;;5085915;28;20457;-67
2022/09/17 01:22:25;;;;;;;3.00;1.42;;;8.90;99.90;;;;;;5082071;28;19966;-70
2022/09/17 01:25:05;;;;;;;2.45;1.25;;;8.90;99.90;;;;;;5084304;28;20077;-69
2022/09/17 01:28:11;;;;;;;7.28;1.23;;;8.90;99.90;;;;;;5083656;28;20076;-67
2022/09/17 01:31:00;;;;;;;3.85;1.10;;;8.90;99.90;;;;;;5072033;28;20166;-68
2022/09/17 01:33:46;;;;;;;9.25;2.00;;;9.00;99.90;;;;;;5084135;28;20123;-67
2022/09/17 01:36:35;;;;;;;9.75;1.58;;;9.00;99.90;;;;;;5073577;28;20043;-66
2022/09/17 01:39:41;;;;;;;6.60;2.03;;;9.00;99.90;;;;;;5086512;28;20088;-67
2022/09/17 01:42:24;;;;;;;7.20;1.70;;;9.00;99.90;;;;;;5076991;28;20032;-67
2022/09/17 01:45:05;;;;;;;4.70;1.95;;;8.90;99.90;;;;;;5082982;28;20051;-67
2022/09/17 01:47:34;;;;;;;5.95;1.13;;;9.00;99.90;;;;;;5084145;28;20055;-67
2022/09/17 01:50:06;;;;;;;7.38;1.20;;;9.00;99.90;;;;;;5085326;28;20515;-67
2022/09/17 01:52:34;;;;;;;4.10;1.25;;;8.90;99.90;;;;;;5081107;28;20480;-67
2022/09/17 01:55:05;;;;;;;3.05;1.13;;;8.90;99.90;;;;;;5081077;28;20067;-66
2022/09/17 01:57:46;;;;;;;5.03;1.10;;;8.90;99.90;;;;;;5080080;28;20631;-67
2022/09/17 02:00:16;;;;;;;11.70;2.03;;;9.00;99.90;;;;;;5076188;28;20078;-67
2022/09/17 02:02:50;;;;;;;4.20;1.25;;;9.00;99.90;;;;;;5080067;28;20122;-70
2022/09/17 02:05:25;;;;;;;4.10;0.77;;;9.00;99.90;;;;;;5077650;28;20032;-68
2022/09/17 02:08:04;;;;;;;8.50;1.67;;;9.00;99.90;;;;;;5084648;28;20054;-67
2022/09/17 02:10:36;;;;;;;8.85;2.10;;;9.00;99.90;;;;;;5078758;28;20044;-68
2022/09/17 02:13:15;;;;;;;14.27;2.70;;;8.90;99.90;;;;;;5084219;28;20407;-67
2022/09/17 02:15:48;;;;;;;12.73;2.47;;;8.90;99.90;;;;;;5080007;28;20036;-67
2022/09/17 02:18:28;;;;;;;10.10;2.42;;;8.90;99.90;;;;;;5077611;28;20036;-68
2022/09/17 02:21:02;;;;;;;12.45;3.03;;;8.90;99.90;;;;;;5079892;28;20046;-68
2022/09/17 02:23:34;;;;;;;9.75;2.40;;;8.90;99.90;;;;;;5084264;28;20069;-69
2022/09/17 02:26:08;;;;;;;13.77;2.95;;;8.90;99.90;;;;;;5080240;28;20052;-67
2022/09/17 02:28:53;;;;;;;21.35;3.97;;;8.90;99.90;;;;;;5085188;28;20412;-68
2022/09/17 02:31:19;;;;;;;17.88;3.33;;;8.80;99.90;;;;;;5071861;28;20510;-70
2022/09/17 02:33:50;;;;;;;;;;;8.80;99.90;;;;;;5081579;28;20040;-67
2022/09/17 02:36:16;;;;;;;17.73;3.65;;;8.80;99.90;;;;;;5079782;28;20024;-67
2022/09/17 02:38:45;;;;;;;18.17;3.88;;;8.70;99.90;;;;;;5100183;28;20040;-69
2022/09/17 02:41:14;;;;;;;16.30;3.70;;;8.80;99.90;;;;;;5076528;28;20067;-69
2022/09/17 02:43:59;;;;;;;22.83;4.53;;;8.70;99.90;;;;;;5085494;28;20040;-68
2022/09/17 02:46:37;;;;;;;12.35;3.63;;;8.70;99.90;;;;;;5075974;28;20036;-69
2022/09/17 02:49:25;;;;;;;17.30;3.85;;;8.70;99.90;;;;;;5084851;28;20048;-67
2022/09/17 02:52:08;;;;;;;20.40;3.85;;;8.80;99.90;;;;;;5079926;28;20050;-68
2022/09/17 02:54:43;;;;;;;19.40;4.32;;;8.80;99.90;;;;;;5084844;28;20051;-65
2022/09/17 02:57:23;;;;;;;14.43;4.57;;;8.80;99.90;;;;;;5080942;28;20092;-66
2022/09/17 03:00:17;;;;;;;13.35;4.22;;;8.80;99.90;;;;;;5082616;28;20641;-65
2022/09/17 03:02:57;;;;;;;12.60;3.70;;;8.80;99.90;;;;;;5075298;28;20040;-66
2022/09/17 03:05:24;;;;;;;21.30;6.03;;;8.80;99.90;;;;;;5077431;28;20105;-65
2022/09/17 03:07:50;;;;;;;12.68;4.05;;;8.80;99.90;;;;;;5083939;28;20036;-66
2022/09/17 03:10:18;;;;;;;12.85;4.10;;;8.80;99.90;;;;;;5080665;28;20036;-67
2022/09/17 03:12:44;;;;;;;20.15;5.50;;;8.90;99.90;;;;;;5081616;28;20044;-66
2022/09/17 03:15:09;;;;;;;;;;;8.90;99.90;;;;;;5083153;28;20055;-66
2022/09/17 03:17:35;;;;;;;27.13;7.35;;;8.80;99.90;;;;;;5083975;28;20008;-66
2022/09/17 03:20:01;;;;;;;;;;;8.80;99.90;;;;;;5084792;28;20106;-66
2022/09/17 03:22:26;;;;;;;14.93;5.63;;;8.80;99.90;;;;;;5079320;28;19924;-66
2022/09/17 03:24:52;;;;;;;;;;;8.90;99.90;;;;;;5084130;28;20475;-66
2022/09/17 03:27:18;;;;;;;21.10;5.95;;;8.80;99.90;;;;;;5079844;28;20682;-67
2022/09/17 03:29:43;;;;;;;;;;;8.80;99.90;;;;;;5084060;28;20057;-65
2022/09/17 03:32:09;;;;;;;18.25;5.63;;;8.80;99.90;;;;;;5077132;28;19916;-67
2022/09/17 03:34:35;;;;;;;;;;;8.80;99.90;;;;;;5084650;28;20448;-66
2022/09/17 03:37:01;;;;;;;22.35;6.82;;;8.80;99.90;;;;;;5072340;28;19920;-66
2022/09/17 03:39:28;;;;;;;15.07;5.70;;;8.80;99.90;;;;;;5084994;28;20039;-66
2022/09/17 03:41:53;;;;;;;18.95;5.13;;;8.80;99.90;;;;;;5075614;28;20042;-68
2022/09/17 03:44:20;;;;;;;;;;;8.70;99.90;;;;;;5084822;28;20447;-67
2022/09/17 03:46:45;;;;;;;22.95;5.93;;;8.80;99.90;;;;;;5079012;28;19924;-65
2022/09/17 03:49:11;;;;;;;;;;;8.70;99.90;;;;;;5085686;28;20046;-66
2022/09/17 03:51:36;;;;;;;20.70;6.20;;;8.70;99.90;;;;;;5079952;28;19923;-66
2022/09/17 03:54:02;;;;;;;;;;;8.70;99.90;;;;;;5088214;28;20492;-65
2022/09/17 03:56:28;;;;;;;20.80;6.13;;;8.70;99.90;;;;;;5082902;28;19920;-66
2022/09/17 03:59:00;;;;;;;15.90;6.03;;;8.70;99.90;;;;;;5089126;28;20032;-67
2022/09/17 04:01:27;;;;;;;20.70;6.35;;;8.70;99.90;;;;;;5080886;28;20036;-66
2022/09/17 04:03:53;;;;;;;24.05;7.20;;;8.70;99.90;;;;;;5086377;28;20579;-67
2022/09/17 04:06:19;;;;;;;;;;;8.60;99.90;;;;;;5085080;28;20040;-65
2022/09/17 04:08:45;;;;;;;16.83;5.40;;;8.70;99.90;;;;;;5087950;28;19920;-66
2022/09/17 04:11:10;;;;;;;;;;;8.70;99.90;;;;;;5080555;28;20039;-67
2022/09/17 04:13:36;;;;;;;16.05;6.00;;;8.60;99.90;;;;;;5087435;28;19922;-66
2022/09/17 04:16:02;;;;;;;;;;;8.60;99.90;;;;;;5081087;28;20046;-67
2022/09/17 04:18:27;;;;;;;14.82;5.32;;;8.60;99.90;;;;;;5084183;28;19916;-68
2022/09/17 04:20:53;;;;;;;23.65;6.63;;;8.60;99.90;;;;;;5079298;28;20032;-66
2022/09/17 04:23:19;;;;;;;35.92;7.40;;;8.60;99.90;;;;;;5086942;28;20047;-67
2022/09/17 04:25:44;;;;;;;;;;;8.50;99.90;;;;;;5082508;28;20044;-69
2022/09/17 04:28:10;;;;;;;18.33;6.50;;;8.50;99.90;;;;;;5088081;28;19916;-67
2022/09/17 04:30:36;;;;;;;25.38;7.20;;;8.40;99.90;;;;;;5082481;28;20053;-67
2022/09/17 04:33:02;;;;;;;;;;;8.50;99.90;;;;;;5082941;28;20146;-66
2022/09/17 04:35:28;;;;;;;23.92;8.68;;;8.50;99.90;;;;;;5084468;28;19974;-69
2022/09/17 04:37:55;;;;;;;21.80;6.95;;;8.40;99.90;;;;;;5085982;28;20044;-69
2022/09/17 04:40:22;;;;;;;26.23;7.38;;;8.50;99.90;;;;;;5082231;28;20036;-68
2022/09/17 04:42:50;;;;;;;24.60;8.00;;;8.50;99.90;;;;;;5077929;28;20040;-69
2022/09/17 04:45:16;;;;;;;24.25;8.65;;;8.50;99.90;;;;;;5084669;28;20044;-67
2022/09/17 04:47:42;;;;;;;;;;;8.40;99.90;;;;;;5083267;28;20032;-67
2022/09/17 04:50:07;;;;;;;22.75;7.65;;;8.50;99.90;;;;;;5086053;28;19963;-67
2022/09/17 04:52:33;;;;;;;;;;;8.40;99.90;;;;;;5083029;28;20508;-68
2022/09/17 04:54:59;;;;;;;20.27;7.30;;;8.40;99.90;;;;;;5097288;28;20098;-69
2022/09/17 04:57:25;;;;;;;22.85;6.97;;;8.40;99.90;;;;;;5079821;28;20040;-67
2022/09/17 04:59:51;;;;;;;22.30;7.38;;;8.40;99.90;;;;;;5086785;28;20114;-64
2022/09/17 05:02:16;;;;;;;;;;;8.40;99.90;;;;;;5077636;28;20123;-67
2022/09/17 05:04:42;;;;;;;23.77;7.05;;;8.40;99.90;;;;;;5086379;28;19927;-66
2022/09/17 05:07:08;;;;;;;;;;;8.40;99.90;;;;;;5085029;28;20040;-67
2022/09/17 05:09:33;;;;;;;26.25;7.10;;;8.30;99.90;;;;;;5086869;28;20372;-66
2022/09/17 05:11:59;;;;;;;25.10;7.40;;;8.30;99.90;;;;;;5079507;28;20044;-68
2022/09/17 05:14:25;;;;;;;23.60;6.93;;;8.40;99.90;;;;;;5078469;28;20036;-69
2022/09/17 05:16:50;;;;;;;;;;;8.30;99.90;;;;;;5076193;28;20064;-68
2022/09/17 05:19:16;;;;;;;26.77;6.35;;;8.30;99.90;;;;;;5083771;28;19923;-68
2022/09/17 05:21:42;;;;;;;;;;;8.30;99.90;;;;;;5079485;28;20119;-66
2022/09/17 05:24:08;;;;;;;22.50;5.40;;;8.30;99.90;;;;;;5085902;28;20742;-67
2022/09/17 05:26:33;;;;;;;;;;;8.30;99.90;;;;;;5078498;28;20056;-70
2022/09/17 05:28:59;;;;;;;27.48;6.07;;;8.30;99.90;;;;;;5086525;28;19969;-67
2022/09/17 05:31:24;;;;;;;;;;;8.30;99.90;;;;;;5082510;28;20475;-66
2022/09/17 05:33:50;;;;;;;15.40;4.95;;;8.30;99.90;;;;;;5078323;28;20411;-69
2022/09/17 05:36:15;;;;;;;;;;;8.40;99.90;;;;;;5083263;28;20423;-67
2022/09/17 05:38:41;;;;;;;19.77;5.13;;;8.40;99.90;;;;;;5080081;28;20428;-67
2022/09/17 05:41:07;;;;;;;;;;;8.40;99.90;;;;;;5073092;28;20055;-66
2022/09/17 05:43:33;;;;;;;16.88;4.93;;;8.30;99.90;;;;;;5078065;28;19927;-66
2022/09/17 05:46:02;;;;;;;;;;;8.40;99.90;;;;;;5080818;28;20036;-66
2022/09/17 05:48:28;;;;;;;26.73;6.20;;;8.40;99.90;;;;;;5082842;28;19920;-66
2022/09/17 05:50:54;;;;;;;;;;;8.30;99.90;;;;;;5079090;28;20028;-71
2022/09/17 05:53:20;;;;;;;28.42;4.60;;;8.40;99.90;;;;;;5085727;28;19954;-66
2022/09/17 05:55:45;;;;;;;;;;;8.40;99.90;;;;;;5083069;28;20050;-67
2022/09/17 05:58:16;;;;;;;22.65;5.10;;;8.40;99.90;;;;;;5086322;28;19969;-70
2022/09/17 06:00:42;;;;;;;19.23;4.32;;;8.40;99.90;;;;;;5081845;28;20036;-66
2022/09/17 06:03:10;;;;;;;20.02;3.72;;;8.50;99.90;;;;;;5080666;28;20036;-64
2022/09/17 06:05:36;;;;;;;16.80;4.05;;;8.40;99.90;;;;;;5082862;28;20035;-67
2022/09/17 06:08:02;;;;;;;;;;;8.50;99.90;;;;;;5085437;28;20036;-67
2022/09/17 06:10:27;;;;;;;14.93;3.97;;;8.60;99.90;;;;;;5078920;28;20753;-67
2022/09/17 06:12:57;;;;;;;23.33;4.18;;;8.50;99.90;;;;;;5083318;28;20040;-67
2022/09/17 06:15:23;;;;;;;16.23;4.47;;;8.60;99.90;;;;;;5082982;28;20043;-66
2022/09/17 06:17:49;;;;;;;15.75;3.88;;;8.60;99.90;;;;;;5081717;28;20651;-68
2022/09/17 06:20:15;;;;;;;;;;;8.60;99.90;;;;;;5083993;28;20042;-66
2022/09/17 06:22:41;;;;;;;17.85;3.50;;;8.70;99.90;;;;;;5073887;28;19923;-67
2022/09/17 06:25:07;;;;;;;13.55;3.92;;;8.70;99.90;;;;;;5080806;28;20611;-67
2022/09/17 06:27:33;;;;;;;;;;;8.60;99.90;;;;;;5081821;28;20157;-68
2022/09/17 06:29:59;;;;;;;11.10;3.80;;;8.60;99.90;;;;;;5077991;28;20014;-66
2022/09/17 06:32:25;;;;;;;20.73;3.88;;;8.50;99.90;;;;;;5085551;28;20044;-65
2022/09/17 06:34:51;;;;;;;12.88;3.45;;;8.50;99.90;;;;;;5083501;28;20142;-66
2022/09/17 06:37:17;;;;;;;;;;;8.50;99.90;;;;;;5083564;28;20043;-67
2022/09/17 06:39:43;;;;;;;22.08;4.45;;;8.50;99.90;;;;;;5084551;28;19920;-69
2022/09/17 06:42:09;;;;;;;14.32;3.40;;;8.40;99.90;;;;;;5078641;28;20499;-68
2022/09/17 06:44:34;;;;;;;;;;;8.50;99.90;;;;;;5085540;28;20043;-66
2022/09/17 06:47:00;;;;;;;18.08;3.75;;;8.50;99.90;;;;;;5079095;28;19924;-65
2022/09/17 06:49:27;;;;;;;14.45;4.47;;;8.60;99.90;;;;;;5077382;28;20129;-66
2022/09/17 06:51:53;;;;;;;22.45;3.97;;;8.60;99.90;;;;;;5077137;28;20051;-66
2022/09/17 06:54:18;;;;;;;;;;;8.60;99.90;;;;;;5081833;28;20035;-67
2022/09/17 06:56:46;;;;;;;29.88;4.80;;;8.60;99.90;;;;;;5077314;28;19927;-66
2022/09/17 06:59:11;;;;;;;20.52;4.00;;;8.50;99.90;;;;;;5085517;28;20377;-66
2022/09/17 07:01:37;;;;;;;;;;;8.60;99.90;;;;;;5077582;28;20033;-67
2022/09/17 07:04:02;;;;;;;17.92;4.20;;;8.50;99.90;;;;;;5083066;28;20024;-67
2022/09/17 07:06:28;;;;;;;;;;;8.50;99.90;;;;;;5082045;28;20401;-67
2022/09/17 07:08:53;;;;;;;17.50;4.30;;;8.60;99.90;;;;;;5083016;28;20044;-66
2022/09/17 07:11:19;;;;;;;;;;;8.60;99.90;;;;;;5076365;28;20576;-68
2022/09/17 07:13:45;;;;;;;18.20;3.25;;;8.60;99.90;;;;;;5099863;28;20141;-66
2022/09/17 07:16:10;;;;;;;;;;;8.60;99.90;;;;;;5076462;28;20074;-68
2022/09/17 07:18:36;;;;;;;20.63;2.85;;;8.70;99.90;;;;;;5076112;28;20379;-68
2022/09/17 07:21:03;;;;;;;;;;;8.70;99.90;;;;;;5077662;28;20512;-69
2022/09/17 07:23:34;;;;;;;13.93;2.55;;;8.70;99.90;;;;;;5074592;28;20374;-67
2022/09/17 07:26:03;;;;;;;9.68;2.20;;;8.70;99.90;;;;;;5077955;28;20420;-68
2022/09/17 07:28:29;;;;;;;14.00;2.72;;;8.70;99.90;;;;;;5085909;28;20166;-65
2022/09/17 07:30:55;;;;;;;;;;;8.70;99.90;;;;;;5078888;28;20706;-67
2022/09/17 07:33:23;;;;;;;16.48;2.83;;;8.80;99.90;;;;;;5083946;28;19916;-66
2022/09/17 07:35:58;;;;;;;12.18;2.47;;;8.80;99.90;;;;;;5080141;28;20041;-67
2022/09/17 07:38:24;;;;;;;14.10;2.53;;;8.90;99.90;;;;;;5080449;28;20040;-67
2022/09/17 07:40:59;;;;;;;11.90;2.38;;;8.90;99.90;;;;;;5079249;28;20044;-65
2022/09/17 07:43:26;;;;;;;16.92;2.40;;;9.00;99.90;;;;;;5082659;28;20036;-66
2022/09/17 07:45:52;;;;;;;12.32;2.50;;;9.00;99.90;;;;;;5079071;28;20141;-64
2022/09/17 07:48:19;;;;;;;13.15;2.95;;;9.00;99.90;;;;;;5086147;28;20043;-67
2022/09/17 07:50:45;;;;;;;18.60;2.80;;;8.90;99.90;;;;;;5079208;28;20611;-68
2022/09/17 07:53:11;;;;;;;10.90;2.40;;;8.80;99.90;;;;;;5088483;28;20600;-68
2022/09/17 07:55:37;;;;;;;;;;;8.90;99.90;;;;;;5084710;28;20039;-67
2022/09/17 07:58:03;;;;;;;16.63;2.85;;;8.90;99.90;;;;;;5089133;28;19973;-66
2022/09/17 08:00:28;;;;;;;12.23;2.20;;;8.90;99.90;;;;;;5084233;28;20050;-68
2022/09/17 08:02:55;;;;;;;;;;;9.00;99.90;;;;;;5085487;28;20028;-68
2022/09/17 08:05:21;;;;;;;17.00;2.75;;;9.10;99.90;;;;;;5082453;28;19916;-66
2022/09/17 08:07:50;;;;;;;15.35;2.47;;;9.20;99.90;;;;;;5079573;28;20067;-67
2022/09/17 08:10:20;;;;;;;20.45;4.05;;;9.30;99.90;;;;;;5085855;28;20119;-68
2022/09/17 08:12:47;;;;;;;12.85;2.15;;;9.30;99.90;;;;;;5075181;28;20048;-69
2022/09/17 08:15:13;;;;;;;12.13;2.42;;;9.20;99.90;;;;;;5079744;28;20044;-67
2022/09/17 08:17:43;;;;;;;16.15;2.67;;;9.20;99.90;;;;;;5078889;28;20040;-66
2022/09/17 08:20:09;;;;;;;10.88;2.30;;;9.20;99.90;;;;;;5077636;28;20090;-67
2022/09/17 08:22:34;;;;;;;;;;;9.20;99.90;;;;;;5084019;28;20044;-67
2022/09/17 08:25:02;;;;;;;13.50;2.17;;;9.30;99.90;;;;;;5072613;28;20283;-67
2022/09/17 08:27:30;;;;;;;18.65;3.22;;;9.20;99.90;;;;;;5082042;28;20891;-66
2022/09/17 08:29:56;;;;;;;14.00;2.65;;;9.10;99.90;;;;;;5085059;28;20123;-67
2022/09/17 08:32:21;;;;;;;;;;;9.20;99.90;;;;;;5080794;28;20066;-67
2022/09/17 08:34:47;;;;;;;9.88;2.70;;;9.20;99.90;;;;;;5086050;28;19998;-67
2022/09/17 08:37:13;;;;;;;;;;;9.20;99.90;;;;;;5080613;28;20138;-69
2022/09/17 08:39:38;;;;;;;9.10;2.25;;;9.20;99.90;;;;;;5086502;28;19923;-69
2022/09/17 08:42:08;;;;;;;;;;;9.20;99.90;;;;;;5083252;28;20036;-67
2022/09/17 08:44:46;;;;;;;12.07;2.10;;;9.10;99.90;;;;;;5087064;28;19920;-67
2022/09/17 08:47:35;;;;;;;17.00;3.22;;;9.20;99.90;;;;;;5079714;28;20057;-67
2022/09/17 08:50:05;;;;;;;13.70;2.42;;;9.20;99.90;;;;;;5081123;28;20033;-67
2022/09/17 08:52:40;;;;;;;17.48;2.45;;;9.20;99.90;;;;;;5075684;28;20036;-69
2022/09/17 08:55:11;;;;;;;20.10;2.33;;;9.40;99.90;;;;;;5076685;28;20051;-64
2022/09/17 08:58:04;;;;;;;13.25;1.88;;;9.40;99.90;;;;;;5083950;28;20044;-67
2022/09/17 09:00:44;;;;;;;8.25;2.90;;;9.60;99.90;;;;;;5074707;28;20051;-67
2022/09/17 09:03:28;;;;;;;14.25;3.33;;;9.70;99.90;;;;;;5081244;28;20046;-66
2022/09/17 09:05:55;;;;;;;25.88;2.85;;;9.70;99.90;;;;;;5079335;28;20055;-67
2022/09/17 09:08:35;;;;;;;16.27;2.13;;;9.70;99.90;;;;;;5086892;28;20114;-67
2022/09/17 09:11:04;;;;;;;11.65;3.33;;;9.60;99.90;;;;;;5077257;28;20594;-66
2022/09/17 09:13:38;;;;;;;10.63;2.85;;;9.60;99.90;;;;;;5083841;28;20232;-68
2022/09/17 09:16:21;;;;;;;9.10;1.70;;;9.70;99.90;;;;;;5080866;28;20491;-66
2022/09/17 09:18:53;;;;;;;7.28;1.75;;;9.80;99.90;;;;;;5079751;28;20033;-67
2022/09/17 09:21:28;;;;;;;10.23;1.73;;;9.80;99.90;;;;;;5081478;28;20040;-68
2022/09/17 09:23:57;;;;;;;9.73;2.10;;;9.90;99.90;;;;;;5085834;28;20042;-67
2022/09/17 09:26:44;;;;;;;19.25;4.15;;;9.90;99.90;;;;;;5080757;28;20109;-66
2022/09/17 09:29:09;;;;;;;11.30;2.03;;;9.90;99.90;;;;;;5087073;28;20040;-66
2022/09/17 09:31:54;;;;;;;;;;;10.10;99.90;;;;;;5078360;28;20117;-67
2022/09/17 09:34:20;;;;;;;10.55;2.00;;;10.10;99.90;;;;;;5068614;28;19916;-67
2022/09/17 09:36:46;;;;;;;;;;;10.00;99.90;;;;;;5075984;28;20036;-67
2022/09/17 09:39:29;;;;;;;16.47;2.47;;;9.90;99.90;;;;;;5083450;28;19916;-68
2022/09/17 09:42:09;;;;;;;13.55;2.10;;;10.00;99.90;;;;;;5077786;28;20044;-66
2022/09/17 09:44:35;;;;;;;15.70;2.30;;;10.30;99.90;;;;;;5086226;28;20040;-68
2022/09/17 09:47:07;;;;;;;;;;;10.60;99.90;;;;;;5081163;28;20101;-66
2022/09/17 09:49:46;;;;;;;11.38;1.95;;;10.70;99.90;;;;;;5101628;28;19971;-68
2022/09/17 09:52:23;;;;;;;16.77;2.33;;;10.80;99.90;;;;;;5081257;28;20123;-66
2022/09/17 09:55:23;;;;;;;8.73;1.60;;;10.60;99.90;;;;;;5083317;28;20044;-67
2022/09/17 09:57:54;;;;;;;16.88;2.35;;;10.50;99.90;;;;;;5084906;28;20044;-66
2022/09/17 10:00:38;;;;;;;16.85;2.40;;;10.40;99.90;;;;;;5083405;28;20687;-67
2022/09/17 10:03:18;;;;;;;18.88;2.67;;;10.50;99.90;;;;;;5080211;28;20040;-68
2022/09/17 10:06:03;;;;;;;14.57;2.60;;;10.50;99.90;;;;;;5083616;28;20036;-67
2022/09/17 10:08:49;;;;;;;12.95;2.08;;;10.60;99.90;;;;;;5079905;28;20044;-66
2022/09/17 10:11:26;;;;;;;11.88;2.08;;;10.70;99.90;;;;;;5080080;28;20032;-69
2022/09/17 10:13:51;;;;;;;15.43;2.53;;;10.80;99.90;;;;;;5085026;28;20502;-67
2022/09/17 10:16:18;;;;;;;;;;;10.70;99.90;;;;;;5081280;28;20117;-67
2022/09/17 10:18:45;;;;;;;13.00;1.90;;;10.70;99.90;;;;;;5085503;28;19940;-67
2022/09/17 10:21:41;;;;;;;12.68;2.67;;;10.60;99.90;;;;;;5070819;28;20127;-67
2022/09/17 10:24:28;;;;;;;20.08;2.55;;;10.80;99.90;;;;;;5071711;28;20783;-67
2022/09/17 10:27:04;;;;;;;7.70;1.90;;;10.90;99.90;;;;;;5076689;28;20036;-68
2022/09/17 10:29:30;;;;;;;10.70;2.25;;;10.90;99.90;;;;;;5085628;28;20048;-67
2022/09/17 10:31:56;;;;;;;;;;;11.00;99.90;;;;;;5084309;28;20452;-67
2022/09/17 10:34:32;;;;;;;8.03;2.23;;;10.80;99.90;;;;;;5085359;28;19916;-67
2022/09/17 10:36:58;;;;;;;9.93;1.88;;;11.00;99.90;;;;;;5082979;28;20100;-66
2022/09/17 10:39:30;;;;;;;;;;;11.00;99.90;;;;;;5086652;28;20496;-67
2022/09/17 10:42:03;;;;;;;7.18;1.52;;;11.40;99.90;;;;;;5077760;28;20403;-67
2022/09/17 10:44:34;;;;;;;10.60;1.60;;;11.40;99.90;;;;;;5085573;28;20089;-67
2022/09/17 10:47:36;;;;;;;7.18;1.50;;;11.30;99.90;;;;;;5084523;28;20044;-67
2022/09/17 10:50:06;;;;;;;9.35;1.00;;;11.20;99.90;;;;;;5061990;28;20079;-67
2022/09/17 10:52:38;;;;;;;8.23;1.40;;;11.00;99.90;;;;;;5085665;28;20051;-67
2022/09/17 10:55:17;;;;;;;6.55;1.05;;;10.90;99.90;;;;;;5083856;28;20151;-68
2022/09/17 10:57:49;;;;;;;9.80;1.40;;;10.70;99.90;;;;;;5084620;28;20147;-69
2022/09/17 11:00:17;;;;;;;9.57;1.90;;;10.80;99.90;;;;;;5069187;28;20028;-67
2022/09/17 11:02:58;;;;;;;6.47;1.10;;;10.90;99.90;;;;;;5070671;28;20161;-68
2022/09/17 11:05:51;;;;;;;13.60;2.28;;;11.30;99.90;;;;;;5077544;28;20051;-67
2022/09/17 11:08:45;;;;;;;10.52;1.23;;;11.20;99.90;;;;;;5078258;28;20048;-67
2022/09/17 11:11:31;;;;;;;5.45;1.88;;;11.10;99.90;;;;;;5078150;28;20044;-67
2022/09/17 11:14:45;;;;;;;4.57;1.13;;;11.30;99.90;;;;;;5084978;28;20044;-67
2022/09/17 11:17:32;;;;;;;7.30;1.30;;;11.50;99.90;;;;;;5079589;28;20036;-67
2022/09/17 11:20:03;;;;;;;7.28;1.15;;;11.60;99.90;;;;;;5084867;28;20032;-67
2022/09/17 11:22:50;;;;;;;8.95;0.88;;;11.90;99.90;;;;;;5080736;28;20054;-67
2022/09/17 11:25:18;;;;;;;;;;;11.90;99.90;;;;;;5076500;28;20102;-68
2022/09/17 11:27:47;;;;;;;4.70;0.70;;;11.80;99.90;;;;;;5081584;28;19920;-66
2022/09/17 11:30:15;;;;;;;7.03;0.90;;;11.50;99.90;;;;;;5075677;28;20039;-67
2022/09/17 11:33:05;;;;;;;6.40;1.02;;;11.40;99.90;;;;;;5080513;28;20047;-68
2022/09/17 11:36:07;;;;;;;17.90;1.45;;;11.30;99.90;;;;;;5075978;28;20037;-68
2022/09/17 11:38:39;;;;;;;8.30;1.13;;;11.20;99.90;;;;;;5083595;28;20098;-69
2022/09/17 11:41:28;;;;;;;15.05;1.15;;;11.10;99.90;;;;;;5077432;28;20040;-68
2022/09/17 11:44:19;;;;;;;9.75;1.02;;;10.70;99.90;;;;;;5084392;28;20039;-66
2022/09/17 11:47:07;;;;;;;6.72;1.08;;;10.30;99.90;;;;;;5078907;28;20044;-66
2022/09/17 11:49:43;;;;;;;3.65;0.70;;;10.10;99.90;;;;;;5084777;28;20185;-68
2022/09/17 11:52:19;;;;;;;4.55;1.00;;;10.30;99.90;;;;;;5061791;28;20578;-67
2022/09/17 11:55:00;;;;;;;4.00;1.00;;;10.50;99.90;;;;;;5083725;28;20047;-67
2022/09/17 11:57:40;;;;;;;3.60;0.60;;;10.60;99.90;;;;;;5083750;28;20048;-67
2022/09/17 12:00:14;;;;;;;2.30;0.55;;;10.90;99.90;;;;;;5084558;28;20539;-67
2022/09/17 12:02:52;;;;;;;2.38;0.60;;;11.10;99.90;;;;;;5078890;28;20105;-69
2022/09/17 12:05:33;;;;;;;2.80;0.60;;;11.10;99.90;;;;;;5080501;28;20106;-68
2022/09/17 12:08:23;;;;;;;7.30;1.08;;;11.40;99.90;;;;;;5082297;28;20507;-66
2022/09/17 12:10:57;;;;;;;3.15;0.52;;;11.50;99.90;;;;;;5064395;28;20067;-67
2022/09/17 12:13:38;;;;;;;12.50;1.13;;;11.40;99.90;;;;;;5084239;28;20040;-67
2022/09/17 12:16:26;;;;;;;1.85;0.60;;;11.40;99.90;;;;;;5081999;28;20048;-68
2022/09/17 12:19:09;;;;;;;8.05;1.83;;;11.20;99.90;;;;;;5104180;28;20036;-66
2022/09/17 12:21:46;;;;;;;5.65;0.60;;;11.00;99.90;;;;;;5098598;28;20419;-66
2022/09/17 12:24:25;;;;;;;2.58;0.63;;;11.20;99.90;;;;;;5087443;28;20474;-67
2022/09/17 12:27:16;;;;;;;3.40;0.70;;;11.60;99.90;;;;;;5082474;28;20059;-66
2022/09/17 12:29:45;;;;;;;3.78;0.70;;;11.70;99.90;;;;;;5086901;28;20407;-69
2022/09/17 12:32:42;;;;;;;5.60;0.80;;;11.60;99.90;;;;;;5079245;28;20745;-67
2022/09/17 12:35:41;;;;;;;1.85;0.52;;;11.40;99.90;;;;;;5086786;28;20044;-68
2022/09/17 12:38:26;;;;;;;2.55;0.70;;;11.00;99.90;;;;;;5087233;28;20044;-68
2022/09/17 12:41:33;;;;;;;4.28;0.55;;;10.90;99.90;;;;;;5079253;28;20154;-69
2022/09/17 12:44:20;;;;;;;3.35;1.08;;;10.80;99.90;;;;;;5086976;28;20040;-68
2022/09/17 12:47:23;;;;;;;5.70;0.85;;;10.80;99.90;;;;;;5082773;28;20052;-67
2022/09/17 12:50:15;;;;;;;1.33;0.52;;;11.00;99.90;;;;;;5084560;28;20059;-67
2022/09/17 12:52:56;;;;;;;5.20;0.63;;;11.10;99.90;;;;;;5087983;28;20507;-67
2022/09/17 12:55:28;;;;;;;6.05;0.50;;;11.40;99.90;;;;;;5076248;28;20097;-66
2022/09/17 12:58:03;;;;;;;2.55;0.68;;;11.40;99.90;;;;;;5084712;28;20047;-67
2022/09/17 13:00:38;;;;;;;6.20;1.00;;;11.50;99.90;;;;;;5083442;28;20043;-66
2022/09/17 13:03:22;;;;;;;3.30;0.50;;;11.60;99.90;;;;;;5082253;28;20088;-66
2022/09/17 13:06:11;;;;;;;2.75;0.60;;;11.80;99.90;;;;;;5085407;28;20043;-67
2022/09/17 13:08:58;;;;;;;3.95;0.60;;;11.70;99.90;;;;;;5086866;28;20161;-67
2022/09/17 13:12:07;;;;;;;3.45;0.95;;;11.60;99.90;;;;;;5079107;28;20104;-68
2022/09/17 13:14:51;;;;;;;4.63;0.52;;;11.60;99.90;;;;;;5080274;28;20109;-68
2022/09/17 13:17:33;;;;;;;4.05;0.63;;;11.60;99.90;;;;;;5084608;28;20043;-67
2022/09/17 13:20:14;;;;;;;3.22;0.63;;;11.40;99.90;;;;;;5101771;28;20037;-70
2022/09/17 13:22:45;;;;;;;3.63;0.68;;;11.40;99.90;;;;;;5086145;28;20048;-67
2022/09/17 13:25:14;;;;;;;3.88;0.80;;;11.30;99.90;;;;;;5085053;28;20036;-68
2022/09/17 13:27:40;;;;;;;7.47;1.17;;;11.30;99.90;;;;;;5082862;28;20048;-67
2022/09/17 13:30:10;;;;;;;6.93;0.98;;;11.30;99.90;;;;;;5086557;28;20040;-67
2022/09/17 13:32:38;;;;;;;3.33;0.80;;;11.30;99.90;;;;;;5078854;28;20032;-66
2022/09/17 13:35:08;;;;;;;2.25;0.80;;;11.50;99.90;;;;;;5084707;28;20047;-66